sensor_id;sensor_type;location;lat;lon;timestamp;pressure;altitude;pressure_sealevel;temperature;humidity
31225;BME280;17847;31.524;74.366;2022-10-18T00:00:52;98645.84;;;23.01;68.45
31225;BME280;17847;31.524;74.366;2022-10-18T00:03:35;98644.81;;;22.97;68.79
31225;BME280;17847;31.524;74.366;2022-10-18T00:06:24;98646.44;;;22.98;68.91
31225;BME280;17847;31.524;74.366;2022-10-18T00:09:07;98646.09;;;23.04;68.28
31225;BME280;17847;31.524;74.366;2022-10-18T00:11:55;98648.06;;;22.99;68.06
31225;BME280;17847;31.524;74.366;2022-10-18T00:14:39;98649.69;;;23.00;68.33
31225;BME280;17847;31.524;74.366;2022-10-18T00:17:27;98652.41;;;23.00;67.90
31225;BME280;17847;31.524;74.366;2022-10-18T00:20:10;98658.41;;;23.02;67.75
31225;BME280;17847;31.524;74.366;2022-10-18T00:23:00;98657.44;;;22.93;68.01
31225;BME280;17847;31.524;74.366;2022-10-18T00:25:43;98662.34;;;22.96;68.76
31225;BME280;17847;31.524;74.366;2022-10-18T00:32:24;98677.13;;;22.95;68.43
31225;BME280;17847;31.524;74.366;2022-10-18T00:35:07;98679.44;;;22.87;68.49
31225;BME280;17847;31.524;74.366;2022-10-18T00:37:57;98680.47;;;22.73;69.78
31225;BME280;17847;31.524;74.366;2022-10-18T00:40:40;98681.78;;;22.75;69.34
31225;BME280;17847;31.524;74.366;2022-10-18T00:43:28;98684.63;;;22.89;69.39
31225;BME280;17847;31.524;74.366;2022-10-18T00:46:11;98688.97;;;22.90;69.85
31225;BME280;17847;31.524;74.366;2022-10-18T00:49:22;98687.47;;;22.79;69.87
31225;BME280;17847;31.524;74.366;2022-10-18T00:52:42;98688.44;;;22.69;69.61
31225;BME280;17847;31.524;74.366;2022-10-18T00:55:38;98693.84;;;22.74;69.87
31225;BME280;17847;31.524;74.366;2022-10-18T00:58:21;98693.09;;;22.68;69.75
31225;BME280;17847;31.524;74.366;2022-10-18T01:01:09;98684.47;;;22.80;69.66
31225;BME280;17847;31.524;74.366;2022-10-18T01:03:52;98692.09;;;22.83;69.93
31225;BME280;17847;31.524;74.366;2022-10-18T01:09:58;98695.16;;;22.77;69.73
31225;BME280;17847;31.524;74.366;2022-10-18T01:22:26;98715.66;;;22.79;70.22
31225;BME280;17847;31.524;74.366;2022-10-18T01:32:02;98725.28;;;22.96;70.13
31225;BME280;17847;31.524;74.366;2022-10-18T01:34:48;98730.25;;;22.94;70.27
31225;BME280;17847;31.524;74.366;2022-10-18T01:37:40;98737.94;;;22.92;69.80
31225;BME280;17847;31.524;74.366;2022-10-18T01:40:24;98733.19;;;22.78;70.62
31225;BME280;17847;31.524;74.366;2022-10-18T01:43:13;98735.03;;;23.02;70.02
31225;BME280;17847;31.524;74.366;2022-10-18T01:45:59;98743.69;;;23.14;68.87
31225;BME280;17847;31.524;74.366;2022-10-18T01:48:47;98745.50;;;23.19;69.39
31225;BME280;17847;31.524;74.366;2022-10-18T01:51:31;98746.94;;;23.16;68.98
31225;BME280;17847;31.524;74.366;2022-10-18T01:54:36;98749.00;;;23.24;69.13
31225;BME280;17847;31.524;74.366;2022-10-18T02:00:18;98762.50;;;23.35;69.27
31225;BME280;17847;31.524;74.366;2022-10-18T02:03:21;98755.44;;;23.34;68.31
31225;BME280;17847;31.524;74.366;2022-10-18T02:06:22;98761.47;;;23.50;69.26
31225;BME280;17847;31.524;74.366;2022-10-18T02:09:17;98768.19;;;23.57;68.83
31225;BME280;17847;31.524;74.366;2022-10-18T02:12:10;98774.13;;;23.64;66.18
31225;BME280;17847;31.524;74.366;2022-10-18T02:14:55;98776.56;;;23.66;68.04
31225;BME280;17847;31.524;74.366;2022-10-18T02:17:45;98773.34;;;23.78;67.24
31225;BME280;17847;31.524;74.366;2022-10-18T02:20:28;98779.88;;;23.82;66.64
31225;BME280;17847;31.524;74.366;2022-10-18T02:23:21;98783.78;;;23.95;67.00
31225;BME280;17847;31.524;74.366;2022-10-18T02:26:04;98782.38;;;23.97;67.30
31225;BME280;17847;31.524;74.366;2022-10-18T02:29:00;98790.84;;;24.15;66.17
31225;BME280;17847;31.524;74.366;2022-10-18T02:31:44;98794.50;;;24.24;65.61
31225;BME280;17847;31.524;74.366;2022-10-18T02:35:17;98796.06;;;24.44;65.14
31225;BME280;17847;31.524;74.366;2022-10-18T02:37:49;98802.09;;;24.74;64.71
31225;BME280;17847;31.524;74.366;2022-10-18T02:40:46;98805.84;;;24.78;63.43
31225;BME280;17847;31.524;74.366;2022-10-18T02:43:29;98796.53;;;24.65;61.35
31225;BME280;17847;31.524;74.366;2022-10-18T02:46:19;98802.59;;;24.90;62.06
31225;BME280;17847;31.524;74.366;2022-10-18T02:49:02;98808.28;;;24.93;59.89
31225;BME280;17847;31.524;74.366;2022-10-18T02:51:57;98815.19;;;25.18;63.29
31225;BME280;17847;31.524;74.366;2022-10-18T02:54:33;98818.72;;;25.19;60.33
31225;BME280;17847;31.524;74.366;2022-10-18T02:57:28;98820.22;;;25.39;60.24
31225;BME280;17847;31.524;74.366;2022-10-18T03:00:05;98822.44;;;25.51;61.06
31225;BME280;17847;31.524;74.366;2022-10-18T03:03:01;98828.91;;;25.32;57.74
31225;BME280;17847;31.524;74.366;2022-10-18T03:05:56;98829.31;;;25.39;57.48
31225;BME280;17847;31.524;74.366;2022-10-18T03:08:38;98832.91;;;25.63;56.80
31225;BME280;17847;31.524;74.366;2022-10-18T03:11:27;98833.38;;;26.01;57.31
31225;BME280;17847;31.524;74.366;2022-10-18T03:14:09;98838.47;;;26.16;58.96
31225;BME280;17847;31.524;74.366;2022-10-18T03:16:57;98845.66;;;26.26;57.75
31225;BME280;17847;31.524;74.366;2022-10-18T03:19:33;98844.66;;;26.22;57.58
31225;BME280;17847;31.524;74.366;2022-10-18T03:22:28;98851.94;;;26.49;56.40
31225;BME280;17847;31.524;74.366;2022-10-18T03:25:04;98844.97;;;26.52;55.80
31225;BME280;17847;31.524;74.366;2022-10-18T03:27:59;98847.94;;;26.33;53.91
31225;BME280;17847;31.524;74.366;2022-10-18T03:30:48;98839.44;;;26.74;54.90
31225;BME280;17847;31.524;74.366;2022-10-18T03:33:43;98846.28;;;26.86;54.28
31225;BME280;17847;31.524;74.366;2022-10-18T03:36:19;98837.53;;;26.84;54.54
31225;BME280;17847;31.524;74.366;2022-10-18T03:39:14;98849.41;;;26.93;53.36
31225;BME280;17847;31.524;74.366;2022-10-18T03:41:50;98842.47;;;27.04;51.72
31225;BME280;17847;31.524;74.366;2022-10-18T03:44:45;98836.88;;;27.27;51.63
31225;BME280;17847;31.524;74.366;2022-10-18T03:47:21;98842.38;;;27.36;51.13
31225;BME280;17847;31.524;74.366;2022-10-18T03:50:16;98846.97;;;27.92;52.00
31225;BME280;17847;31.524;74.366;2022-10-18T03:52:59;98850.38;;;27.98;52.62
31225;BME280;17847;31.524;74.366;2022-10-18T03:55:54;98844.50;;;28.08;51.86
31225;BME280;17847;31.524;74.366;2022-10-18T03:58:37;98848.66;;;28.49;50.90
31225;BME280;17847;31.524;74.366;2022-10-18T04:01:25;98847.19;;;28.52;48.26
31225;BME280;17847;31.524;74.366;2022-10-18T04:04:08;98850.41;;;29.01;48.84
31225;BME280;17847;31.524;74.366;2022-10-18T04:06:56;98845.28;;;29.21;46.43
31225;BME280;17847;31.524;74.366;2022-10-18T04:09:39;98852.31;;;29.39;49.19
31225;BME280;17847;31.524;74.366;2022-10-18T04:12:27;98849.69;;;29.64;45.07
31225;BME280;17847;31.524;74.366;2022-10-18T04:15:10;98849.13;;;29.50;44.05
31225;BME280;17847;31.524;74.366;2022-10-18T04:17:58;98849.97;;;30.25;43.56
31225;BME280;17847;31.524;74.366;2022-10-18T04:20:41;98855.97;;;29.94;43.64
31225;BME280;17847;31.524;74.366;2022-10-18T04:23:36;98849.25;;;30.50;42.92
31225;BME280;17847;31.524;74.366;2022-10-18T04:26:19;98847.06;;;30.68;46.42
31225;BME280;17847;31.524;74.366;2022-10-18T04:29:07;98854.97;;;31.02;45.07
31225;BME280;17847;31.524;74.366;2022-10-18T04:31:56;98852.19;;;31.15;42.98
31225;BME280;17847;31.524;74.366;2022-10-18T04:34:38;98843.63;;;31.32;42.02
31225;BME280;17847;31.524;74.366;2022-10-18T04:37:26;98849.41;;;31.02;40.11
31225;BME280;17847;31.524;74.366;2022-10-18T04:40:08;98841.72;;;31.61;40.26
31225;BME280;17847;31.524;74.366;2022-10-18T04:42:57;98841.94;;;31.68;38.30
31225;BME280;17847;31.524;74.366;2022-10-18T04:45:39;98841.47;;;31.94;37.80
31225;BME280;17847;31.524;74.366;2022-10-18T04:48:27;98839.88;;;32.22;39.65
31225;BME280;17847;31.524;74.366;2022-10-18T04:51:09;98843.94;;;32.40;35.11
31225;BME280;17847;31.524;74.366;2022-10-18T04:53:58;98838.25;;;32.21;36.21
31225;BME280;17847;31.524;74.366;2022-10-18T04:56:41;98841.38;;;32.63;35.21
31225;BME280;17847;31.524;74.366;2022-10-18T04:59:29;98834.03;;;32.87;33.61
31225;BME280;17847;31.524;74.366;2022-10-18T05:02:05;98837.88;;;32.50;35.28
31225;BME280;17847;31.524;74.366;2022-10-18T05:05:00;98837.53;;;32.68;35.33
31225;BME280;17847;31.524;74.366;2022-10-18T05:07:47;98831.44;;;32.78;34.35
31225;BME280;17847;31.524;74.366;2022-10-18T05:10:36;98834.28;;;32.97;35.67
31225;BME280;17847;31.524;74.366;2022-10-18T05:13:12;98828.56;;;32.58;35.24
31225;BME280;17847;31.524;74.366;2022-10-18T05:16:07;98827.06;;;32.33;37.32
31225;BME280;17847;31.524;74.366;2022-10-18T05:18:43;98825.31;;;32.88;35.72
31225;BME280;17847;31.524;74.366;2022-10-18T05:21:38;98823.16;;;32.97;34.29
31225;BME280;17847;31.524;74.366;2022-10-18T05:24:20;98826.84;;;32.86;34.32
31225;BME280;17847;31.524;74.366;2022-10-18T05:27:08;98823.84;;;33.26;34.99
31225;BME280;17847;31.524;74.366;2022-10-18T05:29:45;98823.13;;;33.29;36.02
31225;BME280;17847;31.524;74.366;2022-10-18T05:32:45;98815.91;;;32.61;32.90
31225;BME280;17847;31.524;74.366;2022-10-18T05:35:40;98812.41;;;33.12;33.44
31225;BME280;17847;31.524;74.366;2022-10-18T05:38:23;98816.97;;;33.40;35.24
31225;BME280;17847;31.524;74.366;2022-10-18T05:41:13;98815.03;;;33.24;34.55
31225;BME280;17847;31.524;74.366;2022-10-18T05:43:56;98811.09;;;33.25;32.98
31225;BME280;17847;31.524;74.366;2022-10-18T05:46:45;98822.22;;;33.09;36.37
31225;BME280;17847;31.524;74.366;2022-10-18T05:49:28;98805.94;;;32.44;33.19
31225;BME280;17847;31.524;74.366;2022-10-18T05:52:16;98804.06;;;33.12;33.66
31225;BME280;17847;31.524;74.366;2022-10-18T05:54:59;98804.75;;;33.09;33.54
31225;BME280;17847;31.524;74.366;2022-10-18T05:57:50;98795.91;;;33.58;32.98
31225;BME280;17847;31.524;74.366;2022-10-18T06:00:33;98791.94;;;33.59;31.16
31225;BME280;17847;31.524;74.366;2022-10-18T06:03:21;98790.25;;;33.54;33.79
31225;BME280;17847;31.524;74.366;2022-10-18T06:06:06;98793.44;;;33.02;31.51
31225;BME280;17847;31.524;74.366;2022-10-18T06:08:55;98787.91;;;33.57;32.34
31225;BME280;17847;31.524;74.366;2022-10-18T06:11:38;98783.91;;;33.54;33.40
31225;BME280;17847;31.524;74.366;2022-10-18T06:14:26;98782.72;;;33.35;33.06
31225;BME280;17847;31.524;74.366;2022-10-18T06:17:10;98779.81;;;33.48;35.17
31225;BME280;17847;31.524;74.366;2022-10-18T06:19:58;98775.56;;;33.54;35.55
31225;BME280;17847;31.524;74.366;2022-10-18T06:22:41;98764.44;;;33.34;35.36
31225;BME280;17847;31.524;74.366;2022-10-18T06:25:29;98764.56;;;33.42;34.51
31225;BME280;17847;31.524;74.366;2022-10-18T06:28:12;98771.75;;;33.43;34.39
31225;BME280;17847;31.524;74.366;2022-10-18T06:31:00;98762.44;;;33.54;35.69
31225;BME280;17847;31.524;74.366;2022-10-18T06:33:43;98755.25;;;33.34;30.29
31225;BME280;17847;31.524;74.366;2022-10-18T06:36:31;98760.53;;;33.59;33.08
31225;BME280;17847;31.524;74.366;2022-10-18T06:39:14;98756.69;;;32.57;30.97
31225;BME280;17847;31.524;74.366;2022-10-18T06:42:02;98751.91;;;33.44;33.83
31225;BME280;17847;31.524;74.366;2022-10-18T06:44:45;98753.44;;;33.06;33.36
31225;BME280;17847;31.524;74.366;2022-10-18T06:47:33;98736.81;;;33.45;31.01
31225;BME280;17847;31.524;74.366;2022-10-18T06:50:16;98734.25;;;33.01;30.43
31225;BME280;17847;31.524;74.366;2022-10-18T06:53:04;98739.44;;;32.83;33.12
31225;BME280;17847;31.524;74.366;2022-10-18T06:55:49;98728.34;;;33.03;32.60
31225;BME280;17847;31.524;74.366;2022-10-18T06:58:44;98725.59;;;33.42;31.86
31225;BME280;17847;31.524;74.366;2022-10-18T07:01:27;98723.25;;;33.44;32.66
31225;BME280;17847;31.524;74.366;2022-10-18T07:04:15;98720.63;;;33.70;34.46
31225;BME280;17847;31.524;74.366;2022-10-18T07:06:58;98707.66;;;33.59;32.48
31225;BME280;17847;31.524;74.366;2022-10-18T07:09:47;98706.97;;;33.85;32.19
31225;BME280;17847;31.524;74.366;2022-10-18T07:12:30;98703.91;;;33.90;31.96
31225;BME280;17847;31.524;74.366;2022-10-18T07:15:19;98696.56;;;33.82;30.46
31225;BME280;17847;31.524;74.366;2022-10-18T07:18:10;98684.44;;;33.51;33.55
31225;BME280;17847;31.524;74.366;2022-10-18T07:21:01;98680.50;;;33.71;33.35
31225;BME280;17847;31.524;74.366;2022-10-18T07:23:44;98674.94;;;33.52;33.86
31225;BME280;17847;31.524;74.366;2022-10-18T07:26:34;98668.50;;;32.89;31.75
31225;BME280;17847;31.524;74.366;2022-10-18T07:29:17;98667.81;;;33.12;31.90
31225;BME280;17847;31.524;74.366;2022-10-18T07:32:13;98662.06;;;33.05;33.14
31225;BME280;17847;31.524;74.366;2022-10-18T07:35:08;98658.13;;;33.25;32.54
31225;BME280;17847;31.524;74.366;2022-10-18T07:37:51;98649.25;;;33.39;30.78
31225;BME280;17847;31.524;74.366;2022-10-18T07:40:39;98643.00;;;33.46;31.29
31225;BME280;17847;31.524;74.366;2022-10-18T07:43:22;98640.97;;;32.84;30.67
31225;BME280;17847;31.524;74.366;2022-10-18T07:46:11;98638.06;;;32.96;31.82
31225;BME280;17847;31.524;74.366;2022-10-18T07:48:54;98619.34;;;33.13;31.55
31225;BME280;17847;31.524;74.366;2022-10-18T07:51:42;98623.22;;;33.28;32.51
31225;BME280;17847;31.524;74.366;2022-10-18T07:54:25;98621.94;;;33.45;33.76
31225;BME280;17847;31.524;74.366;2022-10-18T07:57:20;98615.22;;;33.07;30.23
31225;BME280;17847;31.524;74.366;2022-10-18T08:00:04;98608.50;;;33.27;31.75
31225;BME280;17847;31.524;74.366;2022-10-18T08:02:57;98610.59;;;33.34;29.73
31225;BME280;17847;31.524;74.366;2022-10-18T08:05:40;98604.81;;;33.43;31.94
31225;BME280;17847;31.524;74.366;2022-10-18T08:08:29;98602.53;;;33.25;31.16
31225;BME280;17847;31.524;74.366;2022-10-18T08:11:17;98588.00;;;33.35;34.34
31225;BME280;17847;31.524;74.366;2022-10-18T08:14:13;98588.63;;;33.06;30.02
31225;BME280;17847;31.524;74.366;2022-10-18T08:16:49;98583.91;;;32.90;31.38
31225;BME280;17847;31.524;74.366;2022-10-18T08:19:44;98577.63;;;32.93;32.36
31225;BME280;17847;31.524;74.366;2022-10-18T08:22:40;98568.84;;;32.91;30.76
31225;BME280;17847;31.524;74.366;2022-10-18T08:25:39;98562.75;;;33.05;29.52
31225;BME280;17847;31.524;74.366;2022-10-18T08:28:15;98553.25;;;33.06;31.68
31225;BME280;17847;31.524;74.366;2022-10-18T08:31:12;98550.38;;;32.80;29.87
31225;BME280;17847;31.524;74.366;2022-10-18T08:33:55;98550.84;;;33.05;32.11
31225;BME280;17847;31.524;74.366;2022-10-18T08:36:47;98541.06;;;32.91;30.39
31225;BME280;17847;31.524;74.366;2022-10-18T08:39:30;98547.19;;;33.01;30.48
31225;BME280;17847;31.524;74.366;2022-10-18T08:42:31;98541.19;;;33.18;31.55
31225;BME280;17847;31.524;74.366;2022-10-18T08:45:18;98534.59;;;33.07;32.88
31225;BME280;17847;31.524;74.366;2022-10-18T08:48:36;98523.81;;;32.82;31.69
31225;BME280;17847;31.524;74.366;2022-10-18T08:51:38;98529.28;;;32.98;32.41
31225;BME280;17847;31.524;74.366;2022-10-18T08:54:24;98524.59;;;33.02;30.46
31225;BME280;17847;31.524;74.366;2022-10-18T08:57:15;98517.88;;;33.26;32.31
31225;BME280;17847;31.524;74.366;2022-10-18T08:59:58;98518.22;;;33.02;35.03
31225;BME280;17847;31.524;74.366;2022-10-18T09:03:13;98510.25;;;33.00;32.26
31225;BME280;17847;31.524;74.366;2022-10-18T09:06:18;98505.19;;;33.25;32.77
31225;BME280;17847;31.524;74.366;2022-10-18T09:18:20;98489.81;;;32.69;29.76
31225;BME280;17847;31.524;74.366;2022-10-18T09:27:30;98482.81;;;32.99;32.85
31225;BME280;17847;31.524;74.366;2022-10-18T09:31:04;98480.63;;;32.88;30.65
31225;BME280;17847;31.524;74.366;2022-10-18T09:33:57;98477.91;;;33.11;30.54
31225;BME280;17847;31.524;74.366;2022-10-18T09:36:43;98476.78;;;32.93;32.21
31225;BME280;17847;31.524;74.366;2022-10-18T09:39:40;98467.16;;;32.90;31.60
31225;BME280;17847;31.524;74.366;2022-10-18T09:42:33;98470.59;;;32.61;30.53
31225;BME280;17847;31.524;74.366;2022-10-18T09:45:30;98469.47;;;32.26;29.27
31225;BME280;17847;31.524;74.366;2022-10-18T09:51:13;98456.53;;;32.73;30.91
31225;BME280;17847;31.524;74.366;2022-10-18T09:54:19;98458.22;;;32.77;32.93
31225;BME280;17847;31.524;74.366;2022-10-18T10:00:12;98446.28;;;32.77;33.48
31225;BME280;17847;31.524;74.366;2022-10-18T10:03:11;98444.56;;;32.69;33.12
31225;BME280;17847;31.524;74.366;2022-10-18T10:06:01;98439.84;;;32.73;32.45
31225;BME280;17847;31.524;74.366;2022-10-18T10:09:00;98434.00;;;32.78;31.25
31225;BME280;17847;31.524;74.366;2022-10-18T10:11:48;98436.94;;;32.46;30.52
31225;BME280;17847;31.524;74.366;2022-10-18T10:14:43;98437.53;;;32.55;31.58
31225;BME280;17847;31.524;74.366;2022-10-18T10:17:25;98431.69;;;32.61;30.37
31225;BME280;17847;31.524;74.366;2022-10-18T10:20:24;98436.47;;;32.60;29.57
31225;BME280;17847;31.524;74.366;2022-10-18T10:23:45;98434.34;;;32.14;32.95
31225;BME280;17847;31.524;74.366;2022-10-18T10:26:34;98427.47;;;32.28;33.14
31225;BME280;17847;31.524;74.366;2022-10-18T10:29:55;98430.00;;;32.36;29.54
31225;BME280;17847;31.524;74.366;2022-10-18T10:32:51;98420.66;;;32.25;29.56
31225;BME280;17847;31.524;74.366;2022-10-18T10:35:39;98417.88;;;32.25;32.84
31225;BME280;17847;31.524;74.366;2022-10-18T10:38:33;98426.44;;;32.16;31.26
31225;BME280;17847;31.524;74.366;2022-10-18T10:41:22;98425.06;;;31.91;34.44
31225;BME280;17847;31.524;74.366;2022-10-18T10:44:20;98418.19;;;31.85;32.29
31225;BME280;17847;31.524;74.366;2022-10-18T10:46:57;98418.25;;;31.69;31.38
31225;BME280;17847;31.524;74.366;2022-10-18T10:49:55;98418.13;;;31.81;30.96
31225;BME280;17847;31.524;74.366;2022-10-18T10:52:38;98418.63;;;31.67;34.41
31225;BME280;17847;31.524;74.366;2022-10-18T10:55:33;98418.44;;;31.60;36.68
31225;BME280;17847;31.524;74.366;2022-10-18T10:58:15;98415.88;;;31.51;36.81
31225;BME280;17847;31.524;74.366;2022-10-18T11:16:11;98410.16;;;31.12;38.22
31225;BME280;17847;31.524;74.366;2022-10-18T11:18:56;98407.47;;;30.84;42.04
31225;BME280;17847;31.524;74.366;2022-10-18T11:21:45;98412.84;;;30.93;41.68
31225;BME280;17847;31.524;74.366;2022-10-18T11:24:21;98410.94;;;30.81;41.04
31225;BME280;17847;31.524;74.366;2022-10-18T11:33:28;98421.91;;;30.61;41.13
31225;BME280;17847;31.524;74.366;2022-10-18T11:47:13;98436.31;;;30.26;43.22
31225;BME280;17847;31.524;74.366;2022-10-18T11:59:14;98436.22;;;29.95;44.27
31225;BME280;17847;31.524;74.366;2022-10-18T12:05:01;98440.50;;;29.67;45.37
31225;BME280;17847;31.524;74.366;2022-10-18T12:08:41;98438.53;;;29.68;44.53
31225;BME280;17847;31.524;74.366;2022-10-18T12:11:23;98447.66;;;29.56;44.60
31225;BME280;17847;31.524;74.366;2022-10-18T12:14:36;98452.50;;;29.47;46.52
31225;BME280;17847;31.524;74.366;2022-10-18T12:20:32;98451.22;;;29.32;45.96
31225;BME280;17847;31.524;74.366;2022-10-18T12:23:42;98456.50;;;29.25;46.83
31225;BME280;17847;31.524;74.366;2022-10-18T12:26:35;98464.59;;;29.18;46.45
31225;BME280;17847;31.524;74.366;2022-10-18T12:32:16;98470.63;;;29.11;46.79
31225;BME280;17847;31.524;74.366;2022-10-18T12:35:15;98488.00;;;28.99;48.56
31225;BME280;17847;31.524;74.366;2022-10-18T12:40:53;98489.19;;;28.77;48.83
31225;BME280;17847;31.524;74.366;2022-10-18T12:43:36;98497.81;;;28.76;48.43
31225;BME280;17847;31.524;74.366;2022-10-18T12:46:45;98499.44;;;28.77;49.08
31225;BME280;17847;31.524;74.366;2022-10-18T12:49:35;98505.53;;;28.70;49.31
31225;BME280;17847;31.524;74.366;2022-10-18T12:52:27;98509.28;;;28.65;48.34
31225;BME280;17847;31.524;74.366;2022-10-18T12:58:20;98521.13;;;28.45;51.98
31225;BME280;17847;31.524;74.366;2022-10-18T13:01:04;98512.00;;;28.32;50.91
31225;BME280;17847;31.524;74.366;2022-10-18T13:04:00;98526.13;;;28.30;51.05
31225;BME280;17847;31.524;74.366;2022-10-18T13:13:27;98548.47;;;28.38;49.31
31225;BME280;17847;31.524;74.366;2022-10-18T13:23:30;98564.19;;;28.16;51.03
31225;BME280;17847;31.524;74.366;2022-10-18T13:29:54;98581.66;;;27.99;51.52
31225;BME280;17847;31.524;74.366;2022-10-18T13:32:51;98588.81;;;27.91;50.49
31225;BME280;17847;31.524;74.366;2022-10-18T13:35:57;98582.97;;;27.93;49.66
31225;BME280;17847;31.524;74.366;2022-10-18T13:44:37;98591.28;;;27.84;49.38
31225;BME280;17847;31.524;74.366;2022-10-18T13:47:36;98596.28;;;27.91;49.70
31225;BME280;17847;31.524;74.366;2022-10-18T13:50:36;98599.56;;;27.84;50.57
31225;BME280;17847;31.524;74.366;2022-10-18T14:06:40;98627.94;;;27.94;48.96
31225;BME280;17847;31.524;74.366;2022-10-18T14:09:42;98627.75;;;27.99;48.00
31225;BME280;17847;31.524;74.366;2022-10-18T14:12:38;98624.63;;;28.09;46.92
31225;BME280;17847;31.524;74.366;2022-10-18T14:15:38;98632.13;;;28.29;48.70
31225;BME280;17847;31.524;74.366;2022-10-18T14:18:30;98636.69;;;28.25;47.46
31225;BME280;17847;31.524;74.366;2022-10-18T14:21:24;98635.16;;;28.37;50.50
31225;BME280;17847;31.524;74.366;2022-10-18T14:24:37;98644.31;;;28.28;49.59
31225;BME280;17847;31.524;74.366;2022-10-18T14:27:31;98645.44;;;28.27;50.39
31225;BME280;17847;31.524;74.366;2022-10-18T14:30:15;98635.94;;;28.16;50.82
31225;BME280;17847;31.524;74.366;2022-10-18T14:33:04;98631.91;;;28.14;49.84
31225;BME280;17847;31.524;74.366;2022-10-18T14:36:07;98632.03;;;28.17;50.33
31225;BME280;17847;31.524;74.366;2022-10-18T14:38:58;98635.13;;;28.16;50.82
31225;BME280;17847;31.524;74.366;2022-10-18T14:41:53;98625.44;;;28.09;51.22
31225;BME280;17847;31.524;74.366;2022-10-18T14:44:46;98626.59;;;28.00;50.99
31225;BME280;17847;31.524;74.366;2022-10-18T14:47:36;98644.09;;;28.34;49.49
31225;BME280;17847;31.524;74.366;2022-10-18T14:50:26;98636.81;;;28.38;48.79
31225;BME280;17847;31.524;74.366;2022-10-18T14:53:17;98641.31;;;28.42;49.98
31225;BME280;17847;31.524;74.366;2022-10-18T14:56:31;98636.50;;;28.30;50.56
31225;BME280;17847;31.524;74.366;2022-10-18T14:59:24;98629.75;;;28.19;51.40
31225;BME280;17847;31.524;74.366;2022-10-18T15:02:21;98634.81;;;28.08;51.92
31225;BME280;17847;31.524;74.366;2022-10-18T15:05:22;98628.22;;;28.01;52.49
31225;BME280;17847;31.524;74.366;2022-10-18T15:08:11;98631.69;;;27.89;52.38
31225;BME280;17847;31.524;74.366;2022-10-18T15:10:54;98633.94;;;27.78;52.62
31225;BME280;17847;31.524;74.366;2022-10-18T15:13:51;98630.53;;;27.81;53.13
31225;BME280;17847;31.524;74.366;2022-10-18T15:16:36;98634.16;;;27.73;53.44
31225;BME280;17847;31.524;74.366;2022-10-18T15:19:35;98645.34;;;27.68;52.82
31225;BME280;17847;31.524;74.366;2022-10-18T15:22:22;98635.81;;;27.57;53.50
31225;BME280;17847;31.524;74.366;2022-10-18T15:25:24;98637.59;;;27.52;53.73
31225;BME280;17847;31.524;74.366;2022-10-18T15:28:05;98633.09;;;27.39;53.89
31225;BME280;17847;31.524;74.366;2022-10-18T15:31:00;98628.88;;;27.42;54.20
31225;BME280;17847;31.524;74.366;2022-10-18T15:33:51;98628.38;;;27.48;52.49
31225;BME280;17847;31.524;74.366;2022-10-18T15:36:47;98633.84;;;27.57;53.63
31225;BME280;17847;31.524;74.366;2022-10-18T15:39:31;98637.00;;;27.38;53.87
31225;BME280;17847;31.524;74.366;2022-10-18T15:42:37;98642.03;;;27.27;54.31
31225;BME280;17847;31.524;74.366;2022-10-18T15:48:20;98640.41;;;27.18;55.01
31225;BME280;17847;31.524;74.366;2022-10-18T15:51:05;98648.03;;;27.12;55.59
31225;BME280;17847;31.524;74.366;2022-10-18T15:54:01;98654.66;;;27.20;54.88
31225;BME280;17847;31.524;74.366;2022-10-18T15:56:37;98653.69;;;26.81;53.48
31225;BME280;17847;31.524;74.366;2022-10-18T15:59:34;98650.44;;;26.61;52.94
31225;BME280;17847;31.524;74.366;2022-10-18T16:02:19;98660.44;;;26.57;52.71
31225;BME280;17847;31.524;74.366;2022-10-18T16:05:13;98651.88;;;26.59;51.20
31225;BME280;17847;31.524;74.366;2022-10-18T16:07:53;98638.78;;;26.64;50.14
31225;BME280;17847;31.524;74.366;2022-10-18T16:10:49;98639.59;;;26.82;48.66
31225;BME280;17847;31.524;74.366;2022-10-18T16:13:26;98639.78;;;26.77;48.02
31225;BME280;17847;31.524;74.366;2022-10-18T16:16:26;98631.16;;;26.79;47.64
31225;BME280;17847;31.524;74.366;2022-10-18T16:19:15;98633.94;;;26.79;47.67
31225;BME280;17847;31.524;74.366;2022-10-18T16:22:18;98637.03;;;26.77;47.92
31225;BME280;17847;31.524;74.366;2022-10-18T16:25:04;98634.41;;;26.63;47.75
31225;BME280;17847;31.524;74.366;2022-10-18T16:27:53;98655.16;;;26.87;46.77
31225;BME280;17847;31.524;74.366;2022-10-18T16:30:36;98644.25;;;26.55;47.49
31225;BME280;17847;31.524;74.366;2022-10-18T16:33:24;98629.69;;;26.55;47.67
31225;BME280;17847;31.524;74.366;2022-10-18T16:36:17;98631.19;;;26.87;47.07
31225;BME280;17847;31.524;74.366;2022-10-18T16:39:16;98622.44;;;26.76;47.25
31225;BME280;17847;31.524;74.366;2022-10-18T16:42:00;98624.66;;;26.57;48.06
31225;BME280;17847;31.524;74.366;2022-10-18T16:44:48;98625.66;;;26.61;47.03
31225;BME280;17847;31.524;74.366;2022-10-18T16:47:31;98625.28;;;26.54;47.59
31225;BME280;17847;31.524;74.366;2022-10-18T16:50:19;98620.66;;;26.72;47.62
31225;BME280;17847;31.524;74.366;2022-10-18T16:53:08;98617.75;;;26.68;47.05
31225;BME280;17847;31.524;74.366;2022-10-18T16:56:04;98615.41;;;26.44;47.31
31225;BME280;17847;31.524;74.366;2022-10-18T16:59:00;98621.13;;;26.74;47.05
31225;BME280;17847;31.524;74.366;2022-10-18T17:01:43;98620.28;;;26.56;47.72
31225;BME280;17847;31.524;74.366;2022-10-18T17:04:32;98611.50;;;26.36;47.57
31225;BME280;17847;31.524;74.366;2022-10-18T17:07:22;98620.16;;;26.61;47.44
31225;BME280;17847;31.524;74.366;2022-10-18T17:10:20;98611.69;;;26.31;47.19
31225;BME280;17847;31.524;74.366;2022-10-18T17:13:02;98611.03;;;26.43;48.47